Time;durP1;ratioP1;P1;durP2;ratioP2;P2;SDS_P1;SDS_P2;PMS_P1;PMS_P2;Temp;Humidity;BMP_temperature;BMP_pressure;BME280_temperature;BME280_humidity;BME280_pressure;Samples;Min_cycle;Max_cycle;Signal;HPM_P1;HPM_P2
2022/05/17 00:02:01;;;;;;;5.50;1.80;;;17.70;99.90;;;;;;5042120;28;20033;-75
2022/05/17 00:04:28;;;;;;;4.03;1.55;;;17.80;99.90;;;;;;5044844;28;20017;-77
2022/05/17 00:06:55;;;;;;;8.32;2.65;;;17.90;99.90;;;;;;5043238;28;20037;-74
2022/05/17 00:09:22;;;;;;;5.85;1.60;;;18.00;99.90;;;;;;5046367;28;20021;-77
2022/05/17 00:11:49;;;;;;;3.20;1.70;;;18.30;99.90;;;;;;5045651;28;20033;-73
2022/05/17 00:14:17;;;;;;;6.07;2.10;;;18.40;99.90;;;;;;5042776;28;20443;-75
2022/05/17 00:16:45;;;;;;;6.63;1.75;;;18.40;99.90;;;;;;5047263;28;20013;-74
2022/05/17 00:19:17;;;;;;;5.05;3.08;;;18.50;99.90;;;;;;5044441;28;20029;-76
2022/05/17 00:21:45;;;;;;;5.72;2.10;;;18.60;99.90;;;;;;5038925;28;20017;-76
2022/05/17 00:24:13;;;;;;;6.45;2.88;;;18.70;99.90;;;;;;5047008;28;20029;-74
2022/05/17 00:26:40;;;;;;;6.43;1.30;;;18.80;99.90;;;;;;5030059;28;20033;-78
2022/05/17 00:29:07;;;;;;;3.90;1.55;;;19.00;99.90;;;;;;5031850;28;20566;-75
2022/05/17 00:31:34;;;;;;;5.45;1.90;;;19.00;99.90;;;;;;5046609;28;20025;-76
2022/05/17 00:34:05;;;;;;;2.30;1.00;;;19.10;99.90;;;;;;5043488;28;20013;-77
2022/05/17 00:36:34;;;;;;;4.18;1.10;;;19.30;99.90;;;;;;5047634;28;20021;-75
2022/05/17 00:39:01;;;;;;;4.45;1.17;;;19.50;99.90;;;;;;5043180;28;20060;-76
2022/05/17 00:41:29;;;;;;;4.80;1.70;;;19.60;99.90;;;;;;5044217;28;20017;-75
2022/05/17 00:46:48;;;;;;;4.25;1.40;;;19.80;99.90;;;;;;5043768;28;20060;-74
2022/05/17 00:49:24;;;;;;;5.38;1.25;;;19.90;99.90;;;;;;5044491;28;20023;-74
2022/05/17 00:51:53;;;;;;;3.53;1.38;;;20.10;99.90;;;;;;5035107;28;20033;-76
2022/05/17 00:54:20;;;;;;;3.15;1.42;;;20.30;98.90;;;;;;5045202;28;20064;-73
2022/05/17 00:57:11;;;;;;;4.35;1.23;;;20.30;98.00;;;;;;5034859;28;20041;-77
2022/05/17 00:59:39;;;;;;;1.88;0.73;;;20.20;98.00;;;;;;5032475;28;20048;-73
2022/05/17 01:02:09;;;;;;;4.88;1.77;;;20.20;98.60;;;;;;5045208;28;20577;-76
2022/05/17 01:04:39;;;;;;;1.73;0.80;;;20.30;97.30;;;;;;5039639;28;20025;-73
2022/05/17 01:07:20;;;;;;;2.83;1.15;;;20.40;97.80;;;;;;5047053;28;20013;-71
2022/05/17 01:09:47;;;;;;;4.00;1.10;;;20.40;97.20;;;;;;5050445;28;20021;-73
2022/05/17 01:12:14;;;;;;;3.67;1.08;;;20.50;97.40;;;;;;5049704;28;20032;-75
2022/05/17 01:15:00;;;;;;;2.33;0.77;;;20.50;97.70;;;;;;5047607;28;20059;-74
2022/05/17 01:17:32;;;;;;;2.25;0.98;;;20.80;98.30;;;;;;5029506;28;20044;-75
2022/05/17 01:20:00;;;;;;;1.77;1.20;;;20.90;96.90;;;;;;5034840;28;20085;-74
2022/05/17 01:22:27;;;;;;;3.25;0.88;;;21.10;97.30;;;;;;5044800;28;20850;-71
2022/05/17 01:24:54;;;;;;;1.90;0.73;;;21.20;97.00;;;;;;5049411;28;20087;-75
2022/05/17 01:27:42;;;;;;;1.88;0.65;;;21.20;96.30;;;;;;5048288;28;20033;-76
2022/05/17 01:30:17;;;;;;;4.10;0.80;;;21.20;96.60;;;;;;5047188;28;20101;-76
2022/05/17 01:32:44;;;;;;;2.33;1.13;;;21.40;94.80;;;;;;5043604;28;20025;-69
2022/05/17 01:35:12;;;;;;;2.97;1.17;;;21.20;95.50;;;;;;5047811;28;20105;-73
2022/05/17 01:37:39;;;;;;;5.30;0.80;;;21.00;95.70;;;;;;5031897;28;20132;-71
2022/05/17 01:40:06;;;;;;;1.63;0.50;;;21.10;95.60;;;;;;5052317;28;20029;-72
2022/05/17 01:42:34;;;;;;;1.77;0.88;;;21.00;95.30;;;;;;5050873;28;20025;-73
2022/05/17 01:45:00;;;;;;;1.90;0.60;;;21.10;94.60;;;;;;5051733;28;20017;-72
2022/05/17 01:47:28;;;;;;;2.08;0.80;;;21.30;95.70;;;;;;5050155;28;20068;-72
2022/05/17 01:49:55;;;;;;;1.55;0.70;;;21.30;94.80;;;;;;5051855;28;20025;-72
2022/05/17 01:52:23;;;;;;;5.63;1.10;;;21.50;94.80;;;;;;5051027;28;20038;-73
2022/05/17 01:54:49;;;;;;;6.80;4.00;;;21.60;95.50;;;;;;5051497;28;20021;-71
2022/05/17 01:57:16;;;;;;;2.95;1.63;;;21.70;95.20;;;;;;5055052;28;20024;-74
2022/05/17 01:59:43;;;;;;;5.00;1.05;;;21.80;94.00;;;;;;5051015;28;20056;-74
2022/05/17 02:02:10;;;;;;;2.78;1.10;;;22.10;93.20;;;;;;5051326;28;20017;-72
2022/05/17 02:04:37;;;;;;;3.38;1.55;;;22.10;94.10;;;;;;5050627;28;20055;-72
2022/05/17 02:07:04;;;;;;;1.30;0.90;;;22.20;92.30;;;;;;5050544;28;20070;-75
2022/05/17 02:09:31;;;;;;;1.95;0.90;;;22.30;93.30;;;;;;5050919;28;20395;-71
2022/05/17 02:11:58;;;;;;;3.90;1.20;;;22.60;92.30;;;;;;5051194;28;20119;-74
2022/05/17 02:14:25;;;;;;;3.60;2.25;;;22.80;92.40;;;;;;5050719;28;20110;-74
2022/05/17 02:16:52;;;;;;;2.08;1.10;;;22.70;92.50;;;;;;5051520;28;20025;-71
2022/05/17 02:19:20;;;;;;;4.47;1.13;;;22.60;91.90;;;;;;5050707;28;20013;-72
2022/05/17 02:21:48;;;;;;;2.03;1.13;;;22.60;92.20;;;;;;5049127;28;20017;-71
2022/05/17 02:24:16;;;;;;;2.55;0.80;;;22.80;91.90;;;;;;5050484;28;20021;-71
2022/05/17 02:26:43;;;;;;;1.90;0.40;;;22.60;91.20;;;;;;5049591;28;20025;-71
2022/05/17 02:29:10;;;;;;;3.42;0.63;;;22.50;90.70;;;;;;5039870;28;20031;-69
2022/05/17 02:31:37;;;;;;;2.30;1.15;;;22.50;90.50;;;;;;5050870;28;20131;-74
2022/05/17 02:34:04;;;;;;;4.07;1.25;;;22.60;89.10;;;;;;5050679;28;20071;-75
2022/05/17 02:36:31;;;;;;;1.60;1.05;;;22.70;90.00;;;;;;5050466;28;20095;-72
2022/05/17 02:38:58;;;;;;;4.82;2.45;;;22.80;90.10;;;;;;5047372;28;20037;-71
2022/05/17 02:41:25;;;;;;;2.72;0.93;;;22.80;88.40;;;;;;5045548;28;20024;-71
2022/05/17 02:43:53;;;;;;;2.95;0.75;;;22.60;88.60;;;;;;5046725;28;20032;-72
2022/05/17 02:46:20;;;;;;;1.55;0.63;;;22.60;90.10;;;;;;5047244;28;20095;-72
2022/05/17 02:48:47;;;;;;;2.08;0.60;;;22.80;90.20;;;;;;5047941;28;20020;-72
2022/05/17 02:51:17;;;;;;;1.83;0.70;;;23.00;89.10;;;;;;5047356;28;20017;-71
2022/05/17 02:53:45;;;;;;;0.95;0.45;;;23.00;87.40;;;;;;5031351;28;20021;-70
2022/05/17 02:56:12;;;;;;;1.13;0.57;;;22.80;88.50;;;;;;5030135;28;20215;-70
2022/05/17 02:58:39;;;;;;;2.70;0.82;;;23.00;90.70;;;;;;5047109;28;20021;-73
2022/05/17 03:01:07;;;;;;;2.80;0.68;;;23.20;89.90;;;;;;5041892;28;20018;-75
2022/05/17 03:03:38;;;;;;;1.05;0.95;;;23.20;87.40;;;;;;5041684;28;20056;-70
2022/05/17 03:06:06;;;;;;;4.63;0.88;;;23.20;85.10;;;;;;5045143;28;20104;-73
2022/05/17 03:08:33;;;;;;;3.72;0.80;;;22.80;86.80;;;;;;5044321;28;20016;-73
2022/05/17 03:11:00;;;;;;;1.25;0.50;;;22.90;88.40;;;;;;5046990;28;20025;-71
2022/05/17 03:13:27;;;;;;;1.15;0.57;;;23.00;87.50;;;;;;5041442;28;20503;-70
2022/05/17 03:15:54;;;;;;;2.08;0.65;;;23.10;87.10;;;;;;5044957;28;20057;-70
2022/05/17 03:18:21;;;;;;;1.50;0.40;;;23.30;85.80;;;;;;5044191;28;20521;-69
2022/05/17 03:20:51;;;;;;;1.90;0.73;;;23.30;85.10;;;;;;5044912;28;20099;-69
2022/05/17 03:23:18;;;;;;;5.15;0.88;;;23.20;85.90;;;;;;5040207;28;20091;-72
2022/05/17 03:25:46;;;;;;;3.42;0.85;;;23.30;85.90;;;;;;5029427;28;20357;-72
2022/05/17 03:28:14;;;;;;;1.73;0.63;;;23.40;87.10;;;;;;5039696;28;20021;-72
2022/05/17 03:30:42;;;;;;;2.58;0.80;;;23.60;87.10;;;;;;5042476;28;20021;-69
2022/05/17 03:33:09;;;;;;;1.98;0.57;;;23.60;83.80;;;;;;5033393;28;20538;-72
2022/05/17 03:35:37;;;;;;;3.03;1.08;;;23.60;83.00;;;;;;5044554;28;20025;-72
2022/05/17 03:38:04;;;;;;;1.48;0.80;;;23.60;82.40;;;;;;5046953;28;20109;-69
2022/05/17 03:40:32;;;;;;;2.70;0.90;;;23.60;84.60;;;;;;5045452;28;20016;-69
2022/05/17 03:42:59;;;;;;;3.13;1.35;;;23.70;85.30;;;;;;5048227;28;20017;-73
2022/05/17 03:45:26;;;;;;;3.10;1.10;;;23.70;84.00;;;;;;5042860;28;20072;-69
2022/05/17 03:47:53;;;;;;;5.28;1.25;;;23.50;84.40;;;;;;5047852;28;20028;-70
2022/05/17 03:50:20;;;;;;;1.38;0.65;;;23.50;84.00;;;;;;5046325;28;20086;-71
2022/05/17 03:52:47;;;;;;;2.50;1.10;;;23.50;83.10;;;;;;5046680;28;20028;-70
2022/05/17 03:55:15;;;;;;;2.80;1.85;;;23.70;84.10;;;;;;5030530;28;20053;-70
2022/05/17 03:57:42;;;;;;;3.92;1.05;;;23.90;82.90;;;;;;5046116;28;20021;-72
2022/05/17 04:00:11;;;;;;;2.58;1.05;;;24.10;80.50;;;;;;5041669;28;20044;-72
2022/05/17 04:02:38;;;;;;;3.22;1.75;;;24.10;81.60;;;;;;5043237;28;20383;-72
2022/05/17 04:05:06;;;;;;;3.38;0.88;;;24.20;82.50;;;;;;5029796;28;20812;-68
2022/05/17 04:07:33;;;;;;;1.77;0.93;;;24.00;79.70;;;;;;5039628;28;20017;-68
2022/05/17 04:10:00;;;;;;;1.25;0.50;;;23.90;80.50;;;;;;5043766;28;20087;-70
2022/05/17 04:12:27;;;;;;;2.80;0.80;;;24.00;80.90;;;;;;5039553;28;20230;-68
2022/05/17 04:14:55;;;;;;;4.20;1.15;;;23.90;79.70;;;;;;5041478;28;20029;-70
2022/05/17 04:17:22;;;;;;;2.88;0.95;;;23.60;80.50;;;;;;5045017;28;20079;-68
2022/05/17 04:19:49;;;;;;;3.35;0.70;;;23.40;80.60;;;;;;5044605;28;20043;-69
2022/05/17 04:22:16;;;;;;;3.80;1.02;;;23.50;81.60;;;;;;5047036;28;20013;-73
2022/05/17 04:24:43;;;;;;;2.55;1.10;;;23.60;80.50;;;;;;5046237;28;20021;-71
2022/05/17 04:27:12;;;;;;;1.77;1.00;;;23.70;79.40;;;;;;5042349;28;20013;-69
2022/05/17 04:29:39;;;;;;;1.00;0.32;;;23.60;79.50;;;;;;5051675;28;20040;-73
2022/05/17 04:32:07;;;;;;;3.58;1.92;;;23.70;78.00;;;;;;5046305;28;20471;-70
2022/05/17 04:34:34;;;;;;;3.15;1.00;;;23.70;78.60;;;;;;5050594;28;20036;-69
2022/05/17 04:37:01;;;;;;;2.50;0.70;;;23.70;77.70;;;;;;5046969;28;20020;-72
2022/05/17 04:39:28;;;;;;;2.58;0.80;;;23.70;80.20;;;;;;5048800;28;20036;-69
2022/05/17 04:41:54;;;;;;;2.38;1.20;;;23.70;81.10;;;;;;5031945;28;20022;-68
2022/05/17 04:44:21;;;;;;;4.85;2.33;;;23.70;80.50;;;;;;5042672;28;20032;-70
2022/05/17 04:46:48;;;;;;;2.35;1.30;;;23.50;79.70;;;;;;5045374;28;20025;-67
2022/05/17 04:49:16;;;;;;;1.92;0.80;;;23.70;79.80;;;;;;5040690;28;20021;-72
2022/05/17 04:51:43;;;;;;;2.63;0.73;;;23.60;79.00;;;;;;5044526;28;20030;-72
2022/05/17 04:54:11;;;;;;;1.83;0.60;;;23.60;79.00;;;;;;5048323;28;20021;-70
2022/05/17 04:56:38;;;;;;;1.88;0.60;;;23.60;78.40;;;;;;5046583;28;20024;-71
2022/05/17 04:59:05;;;;;;;2.60;0.65;;;23.60;78.10;;;;;;5043790;28;20037;-69
2022/05/17 05:01:32;;;;;;;2.05;0.70;;;23.60;78.50;;;;;;5051818;28;20380;-73
2022/05/17 05:03:59;;;;;;;2.20;0.65;;;23.40;79.40;;;;;;5047266;28;20321;-70
2022/05/17 05:06:27;;;;;;;1.30;0.65;;;23.50;77.90;;;;;;5037147;28;20160;-70
2022/05/17 05:08:55;;;;;;;3.38;1.02;;;23.50;77.00;;;;;;5039711;28;20025;-70
2022/05/17 05:11:22;;;;;;;2.35;0.65;;;23.60;79.50;;;;;;5032126;28;20021;-71
2022/05/17 05:13:49;;;;;;;1.40;0.95;;;23.90;78.70;;;;;;5038138;28;20041;-70
2022/05/17 05:16:16;;;;;;;2.03;0.50;;;23.90;77.10;;;;;;5044044;28;20043;-70
2022/05/17 05:18:43;;;;;;;1.92;0.90;;;24.00;77.80;;;;;;5040478;28;20036;-73
2022/05/17 05:21:13;;;;;;;3.70;0.93;;;24.30;76.80;;;;;;5026672;28;20021;-72
2022/05/17 05:23:42;;;;;;;3.53;0.88;;;24.60;77.30;;;;;;5027822;28;20013;-71
2022/05/17 05:26:11;;;;;;;1.88;1.00;;;24.60;75.20;;;;;;5033177;28;20027;-72
2022/05/17 05:28:40;;;;;;;1.52;0.70;;;24.60;75.40;;;;;;5035676;28;20504;-71
2022/05/17 05:31:07;;;;;;;2.33;0.65;;;24.90;76.30;;;;;;5037395;28;20040;-70
2022/05/17 05:33:34;;;;;;;2.15;0.65;;;24.90;73.90;;;;;;5044051;28;20277;-72
2022/05/17 05:36:02;;;;;;;2.53;0.80;;;24.90;72.70;;;;;;5044803;28;20056;-70
2022/05/17 05:38:30;;;;;;;2.13;1.08;;;24.70;74.00;;;;;;5043088;28;20538;-72
2022/05/17 05:40:57;;;;;;;3.35;0.90;;;24.80;74.10;;;;;;5033959;28;20025;-72
2022/05/17 05:43:25;;;;;;;2.53;0.85;;;25.00;73.30;;;;;;5024680;28;20025;-71
2022/05/17 05:45:52;;;;;;;2.17;0.80;;;24.80;73.30;;;;;;5035324;28;20135;-71
2022/05/17 05:48:20;;;;;;;1.83;0.77;;;24.60;74.10;;;;;;5019911;28;20026;-71
2022/05/17 05:50:47;;;;;;;3.75;0.88;;;24.70;75.70;;;;;;5036543;28;20017;-69
2022/05/17 05:53:15;;;;;;;2.58;0.80;;;24.10;75.90;;;;;;5030789;28;20499;-72
2022/05/17 05:55:43;;;;;;;3.03;0.82;;;23.40;78.60;;;;;;5047790;28;20063;-70
2022/05/17 05:58:10;;;;;;;2.35;0.70;;;22.80;80.60;;;;;;5036582;28;20115;-71
2022/05/17 06:00:38;;;;;;;4.60;0.95;;;22.20;80.90;;;;;;5043295;28;20040;-71
2022/05/17 06:03:05;;;;;;;2.67;0.90;;;22.10;83.00;;;;;;4695072;28;10000432;-71
2022/05/17 06:05:34;;;;;;;1.48;0.70;;;21.90;82.80;;;;;;5037177;28;20431;-74
2022/05/17 06:08:01;;;;;;;2.20;0.70;;;21.60;84.40;;;;;;5041898;28;20538;-72
2022/05/17 06:10:28;;;;;;;2.67;1.05;;;21.50;84.60;;;;;;5037904;28;20272;-72
2022/05/17 06:12:55;;;;;;;2.05;0.82;;;21.30;85.30;;;;;;5023623;28;20025;-72
2022/05/17 06:15:22;;;;;;;3.42;0.77;;;21.30;86.10;;;;;;5044511;28;20025;-72
2022/05/17 06:17:50;;;;;;;3.85;0.90;;;21.40;84.50;;;;;;5035070;28;20399;-75
2022/05/17 06:20:17;;;;;;;3.08;1.08;;;21.50;85.00;;;;;;5042567;28;20025;-75
2022/05/17 06:22:44;;;;;;;1.80;0.93;;;21.50;86.50;;;;;;5048600;28;20048;-76
2022/05/17 06:25:11;;;;;;;4.70;1.23;;;21.60;86.60;;;;;;5049399;28;20029;-78
2022/05/17 06:27:38;;;;;;;4.55;1.00;;;21.60;85.00;;;;;;5047024;28;20023;-75
2022/05/17 06:30:07;;;;;;;5.03;0.98;;;21.50;86.40;;;;;;5046415;28;20029;-76
2022/05/17 06:32:34;;;;;;;5.82;1.00;;;21.20;87.40;;;;;;5043000;28;20044;-74
2022/05/17 06:35:00;;;;;;;3.15;1.10;;;20.90;89.30;;;;;;5019392;28;20025;-76
2022/05/17 06:37:27;;;;;;;3.75;1.08;;;20.90;90.00;;;;;;5023579;28;20515;-75
2022/05/17 06:39:55;;;;;;;2.88;1.10;;;21.20;90.00;;;;;;5042263;28;20035;-76
2022/05/17 06:42:22;;;;;;;1.85;1.05;;;21.50;89.40;;;;;;5036656;28;20495;-78
2022/05/17 06:44:49;;;;;;;2.80;1.83;;;21.70;88.80;;;;;;5037350;28;20052;-78
2022/05/17 06:47:16;;;;;;;5.53;1.85;;;21.70;88.50;;;;;;5043683;28;20017;-75
2022/05/17 06:49:43;;;;;;;4.50;1.58;;;21.40;88.90;;;;;;5041139;28;20033;-73
2022/05/17 06:52:11;;;;;;;2.22;1.45;;;20.80;90.70;;;;;;5036087;28;20550;-72
2022/05/17 06:54:40;;;;;;;4.47;1.30;;;20.30;91.40;;;;;;5031248;28;20531;-72
2022/05/17 06:57:10;;;;;;;6.32;1.20;;;19.80;92.20;;;;;;5042062;28;20712;-78
2022/05/17 06:59:39;;;;;;;5.88;1.58;;;19.40;92.70;;;;;;5031241;28;20740;-73
2022/05/17 07:02:07;;;;;;;6.30;1.38;;;19.00;93.60;;;;;;5033155;28;20032;-78
2022/05/17 07:04:35;;;;;;;3.72;1.20;;;18.60;94.30;;;;;;5029850;28;20031;-72
2022/05/17 07:07:03;;;;;;;3.05;1.60;;;18.30;94.70;;;;;;5014240;28;20578;-73
2022/05/17 07:09:31;;;;;;;4.40;1.50;;;18.00;95.50;;;;;;5013441;28;20511;-77
2022/05/17 07:14:44;;;;;;;4.72;1.95;;;17.50;96.60;;;;;;5025430;28;20036;-78
2022/05/17 07:17:15;;;;;;;4.15;2.42;;;17.40;97.80;;;;;;5043267;28;20157;-78
2022/05/17 07:19:43;;;;;;;7.97;5.47;;;17.30;98.40;;;;;;5047081;28;20021;-74
2022/05/17 07:22:13;;;;;;;8.82;5.32;;;17.10;98.80;;;;;;5043234;28;20028;-72
2022/05/17 07:24:41;;;;;;;4.30;2.33;;;16.90;99.20;;;;;;5047236;28;20115;-77
2022/05/17 07:27:09;;;;;;;5.82;2.05;;;16.80;99.90;;;;;;5043604;28;20029;-79
2022/05/17 07:29:37;;;;;;;6.40;2.25;;;16.70;99.90;;;;;;5045037;28;20024;-73
2022/05/17 07:32:04;;;;;;;5.43;2.20;;;16.60;99.90;;;;;;5038310;28;20307;-73
2022/05/17 07:34:33;;;;;;;8.27;2.28;;;16.40;99.90;;;;;;5046441;28;20400;-79
2022/05/17 07:37:01;;;;;;;7.53;1.50;;;16.20;99.90;;;;;;5049743;28;20455;-73
2022/05/17 07:39:28;;;;;;;6.60;2.85;;;16.00;99.90;;;;;;5033894;28;20057;-74
2022/05/17 07:41:55;;;;;;;6.90;3.97;;;16.00;99.90;;;;;;5034607;28;20322;-75
2022/05/17 07:44:22;;;;;;;8.90;2.42;;;15.90;99.90;;;;;;5035349;28;20021;-73
2022/05/17 07:46:49;;;;;;;6.05;1.75;;;15.70;99.90;;;;;;5032880;28;20017;-72
2022/05/17 07:49:17;;;;;;;5.78;1.60;;;15.60;99.90;;;;;;5030926;28;20021;-72
2022/05/17 07:51:44;;;;;;;6.70;1.60;;;15.50;99.90;;;;;;5031945;28;20804;-70
2022/05/17 07:54:13;;;;;;;5.93;1.48;;;15.40;99.90;;;;;;5033581;28;20106;-77
2022/05/17 07:56:40;;;;;;;7.38;1.73;;;15.30;99.90;;;;;;5012755;28;20461;-70
2022/05/17 07:59:07;;;;;;;6.28;1.85;;;15.10;99.90;;;;;;5031009;28;20551;-69
2022/05/17 08:01:35;;;;;;;7.88;1.85;;;15.10;99.90;;;;;;5031235;28;20029;-66
2022/05/17 08:04:02;;;;;;;7.35;2.10;;;15.00;99.90;;;;;;5028623;28;20022;-70
2022/05/17 08:06:30;;;;;;;6.63;2.05;;;14.90;99.90;;;;;;5034737;28;20159;-69
2022/05/17 08:08:57;;;;;;;6.05;1.50;;;15.00;99.90;;;;;;5031462;28;20029;-68
2022/05/17 08:11:25;;;;;;;4.55;1.70;;;15.00;99.90;;;;;;5035145;28;20143;-66
2022/05/17 08:13:52;;;;;;;7.80;1.58;;;14.80;99.90;;;;;;5035754;28;20550;-67
2022/05/17 08:16:20;;;;;;;6.45;1.65;;;14.80;99.90;;;;;;5034341;28;20029;-70
2022/05/17 08:18:47;;;;;;;3.72;1.55;;;14.80;99.90;;;;;;5031525;28;20084;-68
2022/05/17 08:21:14;;;;;;;4.68;1.70;;;14.80;99.90;;;;;;5035708;28;20025;-70
2022/05/17 08:23:41;;;;;;;12.93;3.72;;;14.70;99.90;;;;;;5033557;28;20025;-73
2022/05/17 08:28:55;;;;;;;5.65;1.80;;;14.60;99.90;;;;;;5034971;28;20075;-70
2022/05/17 08:31:23;;;;;;;6.18;1.73;;;14.50;99.90;;;;;;5033391;28;20187;-70
2022/05/17 08:33:51;;;;;;;18.83;6.70;;;14.40;99.90;;;;;;5032559;28;20471;-65
2022/05/17 08:36:18;;;;;;;5.07;1.70;;;14.50;99.90;;;;;;5036911;28;20402;-72
2022/05/17 08:38:48;;;;;;;7.80;2.55;;;14.50;99.90;;;;;;5041813;28;20090;-76
2022/05/17 08:41:41;;;;;;;4.75;1.80;;;14.40;99.90;;;;;;5046619;28;20021;-74
2022/05/17 08:44:14;;;;;;;5.45;1.65;;;14.30;99.90;;;;;;5043900;28;20052;-70
2022/05/17 08:47:09;;;;;;;7.53;1.90;;;14.20;99.90;;;;;;5042642;28;20036;-73
2022/05/17 08:49:56;;;;;;;2.78;1.30;;;14.20;99.90;;;;;;5046011;28;20506;-68
2022/05/17 08:52:26;;;;;;;8.23;1.75;;;14.10;99.90;;;;;;5044106;28;20491;-74
2022/05/17 08:55:24;;;;;;;4.88;1.73;;;14.00;99.90;;;;;;5026671;28;20028;-70
2022/05/17 08:58:07;;;;;;;3.75;1.42;;;14.00;99.90;;;;;;5043213;28;20391;-71
2022/05/17 09:00:36;;;;;;;;;;;13.80;99.90;;;;;;5026073;28;20114;-71
2022/05/17 09:03:06;;;;;;;5.07;1.85;;;13.70;99.90;;;;;;5043307;28;19919;-69
2022/05/17 09:05:48;;;;;;;9.85;3.08;;;13.70;99.90;;;;;;5050225;28;20491;-76
2022/05/17 09:08:52;;;;;;;4.38;2.42;;;13.70;99.90;;;;;;5046890;28;20020;-69
2022/05/17 09:11:35;;;;;;;3.20;1.90;;;13.70;99.90;;;;;;5046056;28;20820;-70
2022/05/17 09:14:04;;;;;;;;;;;13.60;99.90;;;;;;5047326;28;20027;-70
2022/05/17 09:16:38;;;;;;;12.93;2.47;;;13.50;99.90;;;;;;5048223;28;19974;-69
2022/05/17 09:19:05;;;;;;;6.45;2.20;;;13.40;99.90;;;;;;5049113;28;20272;-70
2022/05/17 09:21:35;;;;;;;7.45;2.70;;;13.40;99.90;;;;;;5050632;28;20063;-72
2022/05/17 09:24:12;;;;;;;8.32;2.72;;;13.40;99.90;;;;;;5046925;28;20083;-73
2022/05/17 09:26:41;;;;;;;6.85;2.00;;;13.30;99.90;;;;;;5051257;28;20052;-74
2022/05/17 09:29:17;;;;;;;6.97;1.80;;;13.20;99.90;;;;;;5048728;28;20033;-71
2022/05/17 09:31:59;;;;;;;17.13;3.50;;;13.20;99.90;;;;;;5026275;28;20028;-76
2022/05/17 09:34:43;;;;;;;14.90;2.70;;;13.20;99.90;;;;;;5051771;28;20047;-71
2022/05/17 09:37:17;;;;;;;11.82;2.13;;;13.10;99.90;;;;;;5052144;28;20273;-73
2022/05/17 09:39:48;;;;;;;8.52;2.35;;;13.00;99.90;;;;;;5046517;28;20403;-72
2022/05/17 09:42:42;;;;;;;8.18;1.88;;;13.00;99.90;;;;;;5046572;28;20110;-71
2022/05/17 09:45:16;;;;;;;7.93;2.33;;;13.10;99.90;;;;;;5044313;28;20029;-71
2022/05/17 09:47:55;;;;;;;10.77;3.03;;;13.00;99.90;;;;;;5047007;28;20023;-71
2022/05/17 09:53:14;;;;;;;9.77;2.33;;;13.00;99.90;;;;;;5048231;28;20138;-71
2022/05/17 09:55:46;;;;;;;11.40;2.55;;;13.00;99.90;;;;;;5049772;28;20055;-71
2022/05/17 09:58:33;;;;;;;7.53;3.20;;;13.00;99.90;;;;;;5045578;28;20036;-72
2022/05/17 10:01:07;;;;;;;5.28;2.55;;;13.10;99.90;;;;;;5047077;28;20046;-74
2022/05/17 10:03:36;;;;;;;4.45;2.15;;;13.00;99.90;;;;;;5046047;28;20082;-73
2022/05/17 10:06:05;;;;;;;5.70;2.17;;;12.90;99.90;;;;;;5046006;28;20051;-75
2022/05/17 10:08:47;;;;;;;5.28;2.10;;;12.90;99.90;;;;;;5046465;28;20115;-74
2022/05/17 10:11:19;;;;;;;5.32;2.28;;;13.00;99.90;;;;;;5030988;28;20739;-75
2022/05/17 10:14:22;;;;;;;6.85;2.63;;;12.90;99.90;;;;;;5048527;28;20021;-76
2022/05/17 10:17:00;;;;;;;7.57;4.22;;;12.70;99.90;;;;;;5035559;28;20138;-72
2022/05/17 10:19:50;;;;;;;7.65;2.78;;;12.60;99.90;;;;;;5043010;28;20738;-70
2022/05/17 10:22:54;;;;;;;6.50;2.72;;;12.50;99.90;;;;;;5043143;28;20454;-70
2022/05/17 10:25:43;;;;;;;6.03;2.30;;;12.50;99.90;;;;;;5038198;28;20033;-73
2022/05/17 10:28:31;;;;;;;9.15;2.72;;;12.30;99.90;;;;;;5043365;28;20044;-71
2022/05/17 10:31:18;;;;;;;9.02;2.47;;;12.30;99.90;;;;;;5042367;28;20056;-72
2022/05/17 10:34:04;;;;;;;9.57;2.78;;;12.30;99.90;;;;;;5042933;28;20029;-72
2022/05/17 10:39:25;;;;;;;7.60;2.83;;;12.10;99.90;;;;;;5070734;28;20048;-73
2022/05/17 10:41:53;;;;;;;10.68;2.38;;;11.90;99.90;;;;;;5071784;28;20486;-72
2022/05/17 10:44:22;;;;;;;9.20;2.60;;;11.90;99.90;;;;;;5071785;28;20016;-73
2022/05/17 10:47:07;;;;;;;8.23;2.58;;;11.80;99.90;;;;;;5072693;28;20481;-70
2022/05/17 10:50:06;;;;;;;5.38;2.10;;;11.90;99.90;;;;;;5071261;28;20020;-69
2022/05/17 10:53:09;;;;;;;10.32;2.28;;;11.90;99.90;;;;;;4970123;28;20070;-68
2022/05/17 10:56:08;;;;;;;6.93;2.22;;;11.80;99.90;;;;;;4971325;28;20563;-72
2022/05/17 10:59:09;;;;;;;6.05;2.17;;;11.60;99.90;;;;;;4973144;28;20575;-71
2022/05/17 11:01:43;;;;;;;5.55;1.95;;;11.60;99.90;;;;;;4972771;28;20040;-69
2022/05/17 11:04:12;;;;;;;8.02;1.98;;;11.60;99.90;;;;;;4957236;28;20038;-69
2022/05/17 11:07:06;;;;;;;5.55;2.30;;;11.50;99.90;;;;;;4975231;28;20271;-69
2022/05/17 11:09:53;;;;;;;6.88;2.45;;;11.50;99.90;;;;;;4911044;29;20288;-69
2022/05/17 11:12:25;;;;;;;13.73;3.33;;;11.50;99.90;;;;;;4910729;29;20047;-71
2022/05/17 11:15:01;;;;;;;7.75;3.13;;;11.50;99.90;;;;;;4911084;29;20047;-68
2022/05/17 11:17:35;;;;;;;6.68;2.38;;;11.40;99.90;;;;;;4910532;29;20460;-73
2022/05/17 11:20:30;;;;;;;7.53;2.33;;;11.30;99.90;;;;;;4909839;29;20035;-70
2022/05/17 11:23:21;;;;;;;13.13;3.15;;;11.10;99.90;;;;;;4906877;29;20055;-70
2022/05/17 11:26:06;;;;;;;8.23;2.30;;;11.00;99.90;;;;;;4912143;29;20442;-70
2022/05/17 11:28:37;;;;;;;8.30;2.50;;;11.00;99.90;;;;;;4913143;28;20039;-71
2022/05/17 11:31:54;;;;;;;12.52;4.00;;;10.90;99.90;;;;;;4954475;28;20059;-71
2022/05/17 11:34:24;;;;;;;9.43;3.10;;;10.90;99.90;;;;;;4950149;28;20035;-70
2022/05/17 11:36:53;;;;;;;15.32;4.00;;;11.00;99.90;;;;;;4949620;28;20591;-70
2022/05/17 11:39:37;;;;;;;10.25;3.30;;;10.90;99.90;;;;;;4952438;28;20050;-71
2022/05/17 11:42:25;;;;;;;11.63;4.07;;;10.80;99.90;;;;;;4954287;28;20542;-72
2022/05/17 11:44:52;;;;;;;10.95;3.35;;;10.70;99.90;;;;;;4955750;28;20035;-72
2022/05/17 11:47:33;;;;;;;7.82;3.08;;;10.70;99.90;;;;;;4986774;28;20042;-73
2022/05/17 11:50:29;;;;;;;13.95;3.53;;;10.80;99.90;;;;;;4997344;28;20038;-73
2022/05/17 11:53:15;;;;;;;11.13;2.92;;;10.80;99.90;;;;;;4980582;28;20129;-75
2022/05/17 11:56:02;;;;;;;5.82;2.90;;;10.70;99.90;;;;;;5003658;28;20041;-73
2022/05/17 11:58:29;;;;;;;6.05;2.10;;;10.60;99.90;;;;;;4995933;28;20085;-72
2022/05/17 12:00:56;;;;;;;3.67;2.03;;;10.60;99.90;;;;;;5002785;28;20563;-72
2022/05/17 12:03:55;;;;;;;4.20;2.13;;;10.60;99.90;;;;;;4994358;28;20532;-71
2022/05/17 12:06:42;;;;;;;8.15;1.90;;;10.60;99.90;;;;;;4991615;28;20025;-73
2022/05/17 12:09:49;;;;;;;6.03;1.98;;;10.60;99.90;;;;;;4993734;28;20026;-72
2022/05/17 12:12:36;;;;;;;5.88;2.05;;;10.50;99.90;;;;;;4947160;28;20117;-73
2022/05/17 12:15:16;;;;;;;6.85;1.92;;;10.60;99.90;;;;;;4943147;29;20043;-71
2022/05/17 12:17:46;;;;;;;5.35;1.70;;;10.50;99.90;;;;;;4942542;29;20589;-75
2022/05/17 12:20:45;;;;;;;4.00;2.10;;;10.40;99.90;;;;;;4950749;28;20034;-73
2022/05/17 12:23:45;;;;;;;8.27;2.40;;;10.30;99.90;;;;;;4909357;29;20127;-73
2022/05/17 12:26:32;;;;;;;6.85;1.95;;;10.20;99.90;;;;;;4905764;29;20040;-71
2022/05/17 12:30:52;;;;;;;5.45;1.67;;;10.30;99.90;;;;;;4865854;29;20033;-71
2022/05/17 12:31:46;;;;;;;7.82;1.70;;;10.40;99.90;;;;;;4853905;29;20044;-70
2022/05/17 12:34:14;;;;;;;6.55;2.08;;;10.20;99.90;;;;;;4854155;29;20041;-71
2022/05/17 12:36:41;;;;;;;4.53;2.15;;;10.30;99.90;;;;;;4854062;29;20026;-70
2022/05/17 12:44:55;;;;;;;11.55;2.58;;;10.20;99.90;;;;;;4853561;29;20569;-73
2022/05/17 12:47:52;;;;;;;9.77;2.28;;;10.10;99.90;;;;;;4922922;29;20487;-72
2022/05/17 12:50:25;;;;;;;7.60;2.55;;;10.00;99.90;;;;;;4933384;29;20535;-71
2022/05/17 12:52:53;;;;;;;;;;;10.00;99.90;;;;;;4929809;29;20047;-72
2022/05/17 12:55:21;;;;;;;10.52;1.83;;;10.10;99.90;;;;;;4930146;29;19914;-71
2022/05/17 12:57:49;;;;;;;10.82;2.13;;;10.10;99.90;;;;;;4929505;29;20034;-72
2022/05/17 13:00:32;;;;;;;5.63;2.45;;;10.00;99.90;;;;;;4972580;28;20034;-69
2022/05/17 13:03:13;;;;;;;9.75;2.42;;;9.90;99.90;;;;;;5005208;28;20506;-72
2022/05/17 13:05:51;;;;;;;8.20;2.50;;;10.00;99.90;;;;;;5030752;28;20339;-71
2022/05/17 13:08:27;;;;;;;9.23;2.30;;;10.00;99.90;;;;;;5089263;28;20012;-73
2022/05/17 13:11:24;;;;;;;6.03;2.00;;;9.90;99.90;;;;;;5090405;28;20032;-74
2022/05/17 13:14:00;;;;;;;8.77;2.95;;;9.90;99.90;;;;;;5093912;28;20031;-71
2022/05/17 13:16:33;;;;;;;10.85;2.80;;;9.90;99.90;;;;;;5092254;28;20095;-70
2022/05/17 13:19:04;;;;;;;10.05;2.00;;;9.90;99.90;;;;;;5091142;28;20031;-70
2022/05/17 13:21:51;;;;;;;6.00;2.20;;;9.80;99.90;;;;;;5090233;28;20297;-73
2022/05/17 13:24:48;;;;;;;4.68;1.45;;;9.80;99.90;;;;;;5090080;28;20020;-70
2022/05/17 13:27:32;;;;;;;3.53;1.90;;;9.70;99.90;;;;;;4976474;28;20493;-71
2022/05/17 13:30:06;;;;;;;5.80;2.75;;;9.50;99.90;;;;;;4977937;28;20078;-74
2022/05/17 13:32:44;;;;;;;9.77;2.05;;;9.50;99.90;;;;;;4978058;28;20045;-71
2022/05/17 13:35:11;;;;;;;7.57;2.90;;;9.40;99.90;;;;;;4995594;28;20114;-74